.
WxDataArchive / Data Records for 2011-03-21
2011-03-20 March 2011 2011-03-22

Data Records for Monday, 21 March 2011

Time	Temp	Chill	HIndex	Humid	Dewpt	 Wind 	HiWind	WindDir	Rain 	Barom 
-----	----	-----	------	-----	-----	------	------	-------	-----	----- 
00:00	41.2	41.2	41.2	86	37.3	1	3	90	0.00	30.005 
00:05	41.2	41.2	41.2	86	37.3	1	3	90	0.00	30.005 
00:10	41.1	41.1	41.1	87	37.5	1	4	90	0.00	30.005 
00:15	41.1	41.1	41.1	88	37.8	1	3	90	0.00	29.985 
00:20	41.1	41.1	41.1	88	37.8	1	3	90	0.01	29.985 
00:25	41.1	41.1	41.1	89	38.1	1	3	90	0.01	29.985 
00:30	41.1	41.1	41.1	89	38.1	1	3	90	0.00	29.979 
00:35	41.1	41.1	41.1	90	38.4	2	4	90	0.00	29.979 
00:40	41.1	41.1	41.1	90	38.4	2	4	90	0.00	29.979 
00:45	40.9	40.9	40.9	90	38.2	2	5	90	0.00	29.966 
00:50	40.9	40.9	40.9	90	38.2	2	6	90	0.00	29.966 
00:55	40.9	40.9	40.9	91	38.5	2	4	90	0.00	29.966 
01:00	40.9	40.9	40.9	91	38.5	1	4	90	0.00	29.951 
01:05	41.1	41.1	41.1	91	38.7	1	2	90	0.00	29.951 
01:10	41.1	41.1	41.1	91	38.7	1	2	90	0.00	29.951 
01:15	40.9	40.9	40.9	91	38.5	0	1	90	0.00	29.943 
01:20	40.9	40.9	40.9	91	38.5	0	2	90	0.00	29.943 
01:25	40.8	40.8	40.8	91	38.4	0	2	90	0.00	29.943 
01:30	40.6	40.6	40.6	91	38.2	0	2	90	0.00	29.933 
01:35	40.6	40.6	40.6	91	38.2	0	1	90	0.00	29.933 
01:40	40.6	40.6	40.6	92	38.5	0	2	90	0.00	29.933 
01:45	40.5	40.5	40.5	92	38.4	0	1	90	0.00	29.920 
01:50	40.5	40.5	40.5	92	38.4	0	2	90	0.00	29.920 
01:55	40.5	40.5	40.5	92	38.4	0	1	90	0.00	29.920 
02:00	40.6	40.6	40.6	92	38.5	0	2	90	0.00	29.917 
02:05	40.6	40.6	40.6	92	38.5	0	1	90	0.00	29.917 
02:10	40.6	40.6	40.6	92	38.5	0	0	---	0.00	29.917 
02:15	40.8	40.8	40.8	92	38.7	0	1	90	0.00	29.909 
02:20	40.8	40.8	40.8	92	38.7	0	1	90	0.00	29.909 
02:25	40.8	40.8	40.8	92	38.7	0	1	90	0.00	29.909 
02:30	40.9	40.9	40.9	93	39.0	0	1	90	0.00	29.908 
02:35	41.1	41.1	41.1	93	39.2	0	0	---	0.00	29.908 
02:40	41.2	41.2	41.2	93	39.3	0	0	---	0.00	29.908 
02:45	41.6	41.6	41.6	94	40.0	0	1	90	0.00	29.904 
02:50	42.3	42.3	42.3	94	40.7	0	1	90	0.00	29.904 
02:55	43.2	43.2	43.2	94	41.6	0	0	---	0.00	29.904 
03:00	44.1	44.1	44.1	95	42.8	0	1	90	0.00	29.910 
03:05	44.9	44.9	44.9	95	43.6	0	0	---	0.00	29.910 
03:10	46.1	46.1	46.1	96	45.0	0	2	90	0.00	29.910 
03:15	47.3	47.3	47.3	96	46.2	0	2	90	0.00	29.906 
03:20	48.3	48.3	48.3	96	47.2	0	2	90	0.00	29.906 
03:25	49.5	49.5	49.5	96	48.4	0	1	90	0.00	29.906 
03:30	49.8	49.8	49.8	95	48.4	0	1	90	0.00	29.918 
03:35	49.4	49.4	49.4	94	47.7	1	2	90	0.00	29.918 
03:40	49.4	49.4	49.4	94	47.7	0	3	90	0.03	29.918 
03:45	49.4	49.4	49.4	94	47.7	1	3	270	0.01	29.922 
03:50	49.9	49.9	49.9	94	48.2	1	4	248	0.00	29.922 
03:55	50.8	50.8	50.8	95	49.4	2	4	248	0.00	29.922 
04:00	51.6	51.6	51.6	95	50.2	1	3	248	0.00	29.923 
04:05	52.3	52.3	52.3	95	50.9	1	3	248	0.00	29.923 
04:10	52.8	52.8	52.8	95	51.4	1	3	248	0.00	29.923 
04:15	53.1	53.1	53.1	94	51.4	1	3	248	0.00	29.916 
04:20	53.3	53.3	53.3	94	51.6	1	3	248	0.00	29.916 
04:25	53.8	53.8	53.8	94	52.1	1	4	248	0.00	29.916 
04:30	54.1	54.1	54.1	94	52.4	1	3	248	0.00	29.912 
04:35	54.5	54.5	54.5	94	52.8	2	4	248	0.00	29.912 
04:40	54.8	54.8	54.8	93	52.8	1	3	248	0.00	29.912 
04:45	55.0	55.0	55.0	92	52.7	1	5	248	0.00	29.913 
04:50	55.1	55.1	55.1	92	52.8	1	3	248	0.00	29.913 
04:55	55.4	55.4	55.4	91	52.8	1	4	248	0.00	29.913 
05:00	55.6	55.6	55.6	91	53.0	1	3	248	0.00	29.914 
05:05	55.7	55.7	55.7	90	52.8	1	4	248	0.00	29.914 
05:10	55.9	55.9	55.9	89	52.7	1	4	248	0.00	29.914 
05:15	56.3	56.3	56.3	88	52.8	2	6	248	0.00	29.915 
05:20	56.7	56.7	56.7	87	52.9	2	4	270	0.00	29.915 
05:25	57.0	57.0	57.0	86	52.9	2	5	225	0.00	29.915 
05:30	57.3	57.3	57.3	84	52.5	2	4	248	0.00	29.912 
05:35	57.6	57.6	57.6	83	52.5	2	5	248	0.00	29.912 
05:40	58.0	58.0	58.0	81	52.2	2	4	248	0.00	29.912 
05:45	58.1	58.1	58.1	81	52.3	2	5	248	0.00	29.913 
05:50	58.3	58.3	58.3	80	52.2	1	4	248	0.00	29.913 
05:55	58.1	58.1	58.1	79	51.6	1	4	248	0.00	29.913 
06:00	58.0	58.0	58.0	79	51.5	2	6	248	0.00	29.921 
06:05	58.1	58.1	58.1	79	51.6	2	4	248	0.00	29.921 
06:10	58.1	58.1	58.1	78	51.3	2	6	248	0.00	29.921 
06:15	58.1	58.1	58.1	78	51.3	2	5	248	0.00	29.929 
06:20	58.0	58.0	58.0	78	51.2	1	4	225	0.00	29.929 
06:25	57.8	57.8	57.8	78	51.0	2	5	248	0.00	29.929 
06:30	58.0	58.0	58.0	78	51.2	2	5	248	0.00	29.932 
06:35	57.8	57.8	57.8	78	51.0	1	5	270	0.00	29.932 
06:40	57.6	57.6	57.6	78	50.8	1	4	270	0.00	29.932 
06:45	57.5	57.5	57.5	78	50.7	1	3	248	0.00	29.944 
06:50	57.3	57.3	57.3	79	50.8	1	4	248	0.00	29.944 
06:55	57.2	57.2	57.2	79	50.7	1	4	225	0.00	29.944 
07:00	57.0	57.0	57.0	79	50.5	1	4	248	0.00	29.943 
07:05	57.0	57.0	57.0	79	50.5	2	4	248	0.00	29.943 
07:10	56.9	56.9	56.9	79	50.5	1	3	292	0.00	29.943 
07:15	56.9	56.9	56.9	79	50.5	2	3	248	0.00	29.950 
07:20	56.7	56.7	56.7	79	50.3	1	3	248	0.00	29.950 
07:25	56.6	56.6	56.6	80	50.5	1	3	248	0.00	29.950 
07:30	56.5	56.5	56.5	80	50.4	1	3	248	0.00	29.951 
07:35	56.3	56.3	56.3	80	50.2	1	3	248	0.00	29.951 
07:40	56.2	56.2	56.2	81	50.4	0	2	248	0.00	29.951 
07:45	56.0	56.0	56.0	81	50.3	1	2	248	0.00	29.954 
07:50	55.9	55.9	55.9	81	50.2	1	2	248	0.00	29.954 
07:55	55.7	55.7	55.7	81	50.0	0	1	248	0.00	29.954 
08:00	55.6	55.6	55.6	82	50.2	0	1	248	0.00	29.961 
08:05	55.4	55.4	55.4	82	50.0	0	1	248	0.00	29.961 
08:10	55.3	55.3	55.3	82	49.9	0	2	248	0.00	29.961 
08:15	55.1	55.1	55.1	83	50.0	0	1	248	0.00	29.979 
08:20	55.1	55.1	55.1	83	50.0	0	1	248	0.00	29.979 
08:25	55.1	55.1	55.1	84	50.4	0	0	---	0.00	29.979 
08:30	55.1	55.1	55.1	84	50.4	0	1	248	0.00	29.992 
08:35	55.3	55.3	55.3	84	50.5	0	1	248	0.00	29.992 
08:40	55.3	55.3	55.3	84	50.5	0	1	248	0.00	29.992 
08:45	55.4	55.4	55.4	85	51.0	0	1	248	0.00	29.993 
08:50	55.6	55.6	55.6	85	51.2	0	2	248	0.00	29.993 
08:55	55.7	55.7	55.7	85	51.3	0	1	248	0.00	29.993 
09:00	56.0	56.0	56.0	86	51.9	1	2	248	0.00	29.991 
09:05	56.0	56.0	56.0	86	51.9	0	1	248	0.00	29.991 
09:10	56.0	56.0	56.0	87	52.2	1	3	248	0.00	29.991 
09:15	56.0	56.0	56.0	87	52.2	1	2	248	0.00	29.993 
09:20	56.0	56.0	56.0	88	52.5	1	2	248	0.00	29.993 
09:25	56.0	56.0	56.0	88	52.5	1	3	248	0.00	29.993 
09:30	56.0	56.0	56.0	88	52.5	1	2	248	0.00	29.997 
09:35	56.0	56.0	56.0	88	52.5	1	4	248	0.00	29.997 
09:40	55.9	55.9	55.9	88	52.4	1	3	315	0.00	29.997 
09:45	55.7	55.7	55.7	89	52.5	2	6	270	0.00	30.001 
09:50	55.6	55.6	55.6	89	52.4	1	3	270	0.00	30.001 
09:55	55.6	55.6	55.6	89	52.4	1	3	315	0.00	30.001 
10:00	55.4	55.4	55.4	89	52.2	1	3	292	0.00	29.999 
10:05	55.4	55.4	55.4	89	52.2	1	3	315	0.00	29.999 
10:10	55.3	55.3	55.3	89	52.1	1	3	248	0.00	29.999 
10:15	55.1	55.1	55.1	89	51.9	2	4	270	0.00	30.004 
10:20	55.1	55.1	55.1	89	51.9	2	4	292	0.00	30.004 
10:25	55.1	55.1	55.1	89	51.9	1	3	270	0.00	30.004 
10:30	55.1	55.1	55.1	89	51.9	1	3	270	0.00	30.007 
10:35	55.3	55.3	55.3	89	52.1	0	2	270	0.00	30.007 
10:40	55.0	55.0	55.0	88	51.5	1	4	338	0.00	30.007 
10:45	54.8	54.8	54.8	88	51.3	2	4	270	0.00	30.012 
10:50	54.8	54.8	54.8	88	51.3	0	2	270	0.00	30.012 
10:55	54.5	54.5	54.5	87	50.7	1	3	315	0.00	30.012 
11:00	54.2	54.2	54.2	87	50.4	1	3	315	0.00	30.016 
11:05	54.1	54.1	54.1	87	50.3	1	5	292	0.00	30.016 
11:10	53.6	53.6	53.6	87	49.8	2	3	270	0.00	30.016 
11:15	53.5	53.5	53.5	87	49.7	2	4	270	0.00	30.023 
11:20	53.3	53.3	53.3	87	49.5	1	4	292	0.00	30.023 
11:25	53.3	53.3	53.3	87	49.5	1	3	292	0.00	30.023 
11:30	53.3	53.3	53.3	87	49.5	1	3	292	0.00	30.020 
11:35	53.2	53.2	53.2	87	49.4	1	5	270	0.00	30.020 
11:40	53.1	53.1	53.1	87	49.3	1	4	0	0.00	30.020 
11:45	52.9	52.9	52.9	87	49.1	1	3	0	0.00	30.026 
11:50	52.9	52.9	52.9	87	49.1	1	5	315	0.00	30.026 
11:55	52.9	52.9	52.9	87	49.1	1	3	270	0.00	30.026 
12:00	53.1	53.1	53.1	87	49.3	1	3	270	0.00	30.026 
12:05	52.9	52.9	52.9	87	49.1	1	4	292	0.00	30.026 
12:10	52.8	52.8	52.8	87	49.0	1	3	315	0.00	30.026 
12:15	52.6	52.6	52.6	87	48.8	1	4	315	0.00	30.029 
12:20	52.5	52.5	52.5	87	48.7	1	3	315	0.00	30.029 
12:25	52.2	52.2	52.2	87	48.4	1	3	0	0.00	30.029 
12:30	52.0	52.0	52.0	88	48.6	1	4	338	0.00	30.037 
12:35	51.9	51.9	51.9	88	48.5	1	3	338	0.00	30.037 
12:40	51.7	51.7	51.7	88	48.3	1	5	315	0.00	30.037 
12:45	51.6	51.6	51.6	88	48.2	2	5	270	0.00	30.041 
12:50	51.4	51.4	51.4	88	48.0	2	4	338	0.00	30.041 
12:55	51.7	51.7	51.7	88	48.3	2	4	270	0.00	30.041 
13:00	51.9	51.9	51.9	87	48.2	2	3	338	0.00	30.041 
13:05	52.0	52.0	52.0	87	48.3	1	5	338	0.00	30.041 
13:10	52.6	52.6	52.6	87	48.8	2	3	270	0.00	30.041 
13:15	52.9	52.9	52.9	86	48.8	2	3	270	0.00	30.034 
13:20	53.3	53.3	53.3	85	48.9	2	4	270	0.00	30.034 
13:25	53.6	53.6	53.6	84	48.9	1	3	270	0.00	30.034 
13:30	53.9	53.9	53.9	83	48.9	2	4	248	0.00	30.041 
13:35	53.9	53.9	53.9	82	48.5	2	4	248	0.00	30.041 
13:40	53.9	53.9	53.9	82	48.5	1	4	338	0.00	30.041 
13:45	53.8	53.8	53.8	81	48.1	1	3	338	0.00	30.039 
13:50	53.8	53.8	53.8	82	48.4	1	3	338	0.00	30.039 
13:55	53.9	53.9	53.9	81	48.2	1	3	248	0.00	30.039 
14:00	54.1	54.1	54.1	81	48.4	1	3	315	0.00	30.042 
14:05	54.1	54.1	54.1	81	48.4	1	3	315	0.00	30.042 
14:10	54.2	54.2	54.2	80	48.2	2	4	292	0.00	30.042 
14:15	54.5	54.5	54.5	80	48.5	2	5	270	0.00	30.037 
14:20	54.8	54.8	54.8	79	48.4	2	4	315	0.00	30.037 
14:25	55.3	55.3	55.3	79	48.9	1	4	248	0.00	30.037 
14:30	55.4	55.4	55.4	78	48.7	2	4	270	0.00	30.034 
14:35	55.4	55.4	55.4	77	48.3	2	4	248	0.00	30.034 
14:40	55.6	55.6	55.6	78	48.8	1	3	248	0.00	30.034 
14:45	55.9	55.9	55.9	77	48.8	3	5	270	0.00	30.030 
14:50	56.2	56.2	56.2	77	49.1	2	4	270	0.00	30.030 
14:55	56.5	56.5	56.5	77	49.4	1	4	338	0.00	30.030 
15:00	56.9	56.9	56.9	77	49.8	1	4	248	0.00	30.022 
15:05	56.9	56.9	56.9	73	48.3	1	4	292	0.00	30.022 
15:10	57.2	57.2	57.2	74	49.0	1	4	248	0.00	30.022 
15:15	57.0	57.0	57.0	73	48.4	1	4	225	0.00	30.014 
15:20	56.9	56.9	56.9	73	48.3	1	3	225	0.00	30.014 
15:25	56.6	56.6	56.6	73	48.0	2	4	248	0.00	30.014 
15:30	56.5	56.5	56.5	73	47.9	2	4	270	0.00	30.009 
15:35	56.7	56.7	56.7	73	48.1	2	3	248	0.00	30.009 
15:40	56.7	56.7	56.7	71	47.4	2	4	248	0.00	30.009 
15:45	56.7	56.7	56.7	72	47.8	1	3	248	0.00	30.005 
15:50	57.0	57.0	57.0	73	48.4	1	3	248	0.00	30.005 
15:55	57.3	57.3	57.3	73	48.7	2	3	248	0.00	30.005 
16:00	57.6	57.6	57.6	70	47.9	2	5	248	0.00	30.006 
16:05	58.0	58.0	58.0	69	47.9	2	4	270	0.00	30.006 
16:10	58.3	58.3	58.3	67	47.4	2	4	270	0.00	30.006 
16:15	58.4	58.4	58.4	69	48.3	2	3	270	0.00	30.005 
16:20	58.3	58.3	58.3	67	47.4	1	3	270	0.00	30.005 
16:25	58.3	58.3	58.3	65	46.6	2	4	338	0.00	30.005 
16:30	58.0	58.0	58.0	65	46.3	2	4	315	0.00	30.007 
16:35	58.1	58.1	58.1	64	46.0	1	3	292	0.00	30.007 
16:40	58.0	58.0	58.0	64	45.9	1	3	248	0.00	30.007 
16:45	58.0	58.0	58.0	65	46.3	1	3	248	0.00	29.998 
16:50	57.8	57.8	57.8	63	45.3	2	4	292	0.00	29.998 
16:55	57.6	57.6	57.6	65	45.9	1	3	338	0.00	29.998 
17:00	57.8	57.8	57.8	63	45.3	1	4	315	0.00	29.996 
17:05	58.0	58.0	58.0	63	45.5	1	3	292	0.00	29.996 
17:10	58.0	58.0	58.0	63	45.5	1	2	248	0.00	29.996 
17:15	58.0	58.0	58.0	63	45.5	1	3	338	0.00	29.993 
17:20	58.1	58.1	58.1	62	45.1	1	3	292	0.00	29.993 
17:25	58.1	58.1	58.1	61	44.7	1	4	315	0.00	29.993 
17:30	58.1	58.1	58.1	61	44.7	1	3	338	0.00	29.996 
17:35	58.1	58.1	58.1	62	45.1	1	2	338	0.00	29.996 
17:40	58.3	58.3	58.3	62	45.3	1	4	248	0.00	29.996 
17:45	58.4	58.4	58.4	61	45.0	1	3	248	0.00	29.992 
17:50	58.1	58.1	58.1	61	44.7	0	1	248	0.00	29.992 
17:55	58.0	58.0	58.0	62	45.1	1	3	248	0.00	29.992 
18:00	58.1	58.1	58.1	62	45.1	1	4	315	0.00	30.004 
18:05	58.0	58.0	58.0	62	45.1	2	5	315	0.00	30.004 
18:10	58.0	58.0	58.0	61	44.6	1	4	315	0.00	30.004 
18:15	58.0	58.0	58.0	61	44.6	1	3	315	0.00	30.002 
18:20	57.8	57.8	57.8	60	44.0	1	4	315	0.00	30.002 
18:25	57.6	57.6	57.6	60	43.8	0	2	315	0.00	30.002 
18:30	57.6	57.6	57.6	60	43.8	1	3	248	0.00	30.006 
18:35	57.5	57.5	57.5	61	44.2	1	4	338	0.00	30.006 
18:40	57.5	57.5	57.5	61	44.2	1	3	338	0.00	30.006 
18:45	57.3	57.3	57.3	62	44.4	0	3	338	0.00	30.008 
18:50	57.0	57.0	57.0	62	44.1	0	2	338	0.00	30.008 
18:55	56.9	56.9	56.9	63	44.4	0	1	338	0.00	30.008 
19:00	56.7	56.7	56.7	62	43.8	0	1	338	0.00	30.006 
19:05	56.6	56.6	56.6	63	44.2	0	1	338	0.00	30.006 
19:10	56.3	56.3	56.3	64	44.3	0	0	---	0.00	30.006 
19:15	56.0	56.0	56.0	65	44.4	0	1	338	0.00	30.009 
19:20	55.9	55.9	55.9	65	44.3	0	1	338	0.00	30.009 
19:25	55.7	55.7	55.7	65	44.1	0	2	338	0.00	30.009 
19:30	55.6	55.6	55.6	66	44.4	0	1	338	0.00	30.011 
19:35	55.3	55.3	55.3	66	44.1	0	0	---	0.00	30.011 
19:40	55.0	55.0	55.0	66	43.9	0	0	---	0.00	30.011 
19:45	54.7	54.7	54.7	68	44.3	0	0	---	0.00	30.005 
19:50	54.4	54.4	54.4	68	44.1	0	0	---	0.00	30.005 
19:55	53.9	53.9	53.9	69	44.0	0	0	---	0.00	30.005 
20:00	53.5	53.5	53.5	69	43.6	0	0	---	0.00	30.014 
20:05	53.1	53.1	53.1	71	43.9	0	0	---	0.00	30.014 
20:10	52.5	52.5	52.5	71	43.4	0	0	---	0.00	30.014 
20:15	51.9	51.9	51.9	73	43.5	0	0	---	0.00	30.022 
20:20	51.4	51.4	51.4	75	43.7	0	2	338	0.00	30.022 
20:25	51.4	51.4	51.4	76	44.1	0	2	338	0.00	30.022 
20:30	51.7	51.7	51.7	76	44.4	0	3	338	0.00	30.031 
20:35	51.7	51.7	51.7	75	44.0	0	2	338	0.00	30.031 
20:40	51.6	51.6	51.6	74	43.6	0	2	338	0.00	30.031 
20:45	51.6	51.6	51.6	73	43.2	0	2	338	0.00	30.040 
20:50	51.4	51.4	51.4	73	43.0	0	2	338	0.00	30.040 
20:55	51.1	51.1	51.1	72	42.4	1	2	338	0.00	30.040 
21:00	51.0	51.0	51.0	72	42.3	0	2	338	0.00	30.046 
21:05	50.7	50.7	50.7	73	42.4	0	3	292	0.00	30.046 
21:10	50.2	50.2	50.2	72	41.5	0	3	338	0.00	30.046 
21:15	49.9	49.9	49.9	72	41.2	0	2	0	0.00	30.050 
21:20	49.6	49.6	49.6	72	40.9	0	2	0	0.00	30.050 
21:25	49.5	49.5	49.5	72	40.9	0	1	0	0.00	30.050 
21:30	49.1	49.1	49.1	73	40.8	0	1	0	0.00	30.053 
21:35	48.6	48.6	48.6	74	40.7	0	3	0	0.00	30.053 
21:40	48.2	48.2	48.2	74	40.3	1	3	0	0.00	30.053 
21:45	47.7	47.7	47.7	74	39.8	1	3	338	0.00	30.064 
21:50	47.6	47.6	47.6	75	40.1	0	3	338	0.00	30.064 
21:55	47.3	47.3	47.3	75	39.8	0	2	338	0.00	30.064 
22:00	47.1	47.1	47.1	76	39.9	0	1	338	0.00	30.065 
22:05	47.0	47.0	47.0	76	39.8	0	1	338	0.00	30.065 
22:10	46.8	46.8	46.8	77	40.0	0	2	338	0.00	30.065 
22:15	46.7	46.7	46.7	77	39.9	0	1	338	0.00	30.068 
22:20	46.4	46.4	46.4	77	39.6	0	2	338	0.00	30.068 
22:25	46.2	46.2	46.2	77	39.4	0	2	315	0.00	30.068 
22:30	46.0	46.0	46.0	77	39.2	0	1	315	0.00	30.068 
22:35	45.8	45.8	45.8	78	39.3	0	2	315	0.00	30.068 
22:40	45.7	45.7	45.7	78	39.2	0	2	315	0.00	30.068 
22:45	45.5	45.5	45.5	78	39.0	0	2	315	0.00	30.066 
22:50	45.2	45.2	45.2	78	38.8	0	2	338	0.00	30.066 
22:55	45.1	45.1	45.1	79	39.0	0	3	315	0.00	30.066 
23:00	44.9	44.9	44.9	79	38.8	0	2	315	0.00	30.065 
23:05	44.8	44.8	44.8	79	38.7	0	1	315	0.00	30.065 
23:10	44.6	44.6	44.6	80	38.8	0	3	22	0.00	30.065 
23:15	44.5	44.5	44.5	80	38.7	0	1	22	0.00	30.057 
23:20	44.5	44.5	44.5	80	38.7	0	1	22	0.00	30.057 
23:25	44.5	44.5	44.5	80	38.7	0	1	22	0.00	30.057 
23:30	44.5	44.5	44.5	80	38.7	0	2	22	0.00	30.067 
23:35	44.5	44.5	44.5	80	38.7	0	3	22	0.00	30.067 
23:40	44.3	44.3	44.3	80	38.5	0	1	22	0.00	30.067 
23:45	44.3	44.3	44.3	80	38.5	0	2	22	0.00	30.070 
23:50	44.2	44.2	44.2	81	38.7	0	2	22	0.00	30.070 
23:55	44.2	44.2	44.2	81	38.7	0	1	22	0.00	30.070 

CoCoRaHS
IN-AL-39
A2 Web Hosting
Creative Commons License
GoDaddy
search engine by freefind advanced

loaded 2018-11-19 19:26:25 • last modified 2010-11-18 10:43:29
Privacy PolicyDisclaimer
• wx.awcolley.com is powered by PmWiki v.2002016 •
• all content (unless otherwise noted) © 2018 A W Colley